createdAt,value
2018-07-23T00:00:39.746Z,4.10
2018-07-23T00:01:39.704Z,4.50
2018-07-23T00:02:39.659Z,3.90
2018-07-23T00:03:39.623Z,4.00
2018-07-23T00:04:39.611Z,4.00
2018-07-23T00:05:39.553Z,4.00
2018-07-23T00:06:39.521Z,4.00
2018-07-23T00:07:39.483Z,4.00
2018-07-23T00:08:39.444Z,3.90
2018-07-23T00:09:39.405Z,3.90
2018-07-23T00:10:39.389Z,4.20
2018-07-23T00:11:39.333Z,4.20
2018-07-23T00:12:39.293Z,4.30
2018-07-23T00:13:39.253Z,4.20
2018-07-23T00:14:39.212Z,4.00
2018-07-23T00:15:39.196Z,4.10
2018-07-23T00:16:39.139Z,4.30
2018-07-23T00:17:39.098Z,4.30
2018-07-23T00:18:39.077Z,4.50
2018-07-23T00:19:39.028Z,4.40
2018-07-23T00:20:39.021Z,4.40
2018-07-23T00:21:38.962Z,4.30
2018-07-23T00:22:38.909Z,4.40
2018-07-23T00:23:38.874Z,3.90
2018-07-23T00:24:38.836Z,4.20
2018-07-23T00:25:38.799Z,4.20
2018-07-23T00:26:38.788Z,4.50
2018-07-23T00:27:38.729Z,4.30
2018-07-23T00:28:38.688Z,4.50
2018-07-23T00:29:38.647Z,4.00
2018-07-23T00:30:38.619Z,4.30
2018-07-23T00:31:38.597Z,4.40
2018-07-23T00:32:38.539Z,4.50
2018-07-23T00:33:38.509Z,4.70
2018-07-23T00:34:38.462Z,4.20
2018-07-23T00:35:38.421Z,4.60
2018-07-23T00:36:38.406Z,4.20
2018-07-23T00:37:38.350Z,4.70
2018-07-23T00:38:38.313Z,4.30
2018-07-23T00:39:38.277Z,4.60
2018-07-23T00:40:38.243Z,4.40
2018-07-23T00:41:38.233Z,4.60
2018-07-23T00:42:38.156Z,4.40
2018-07-23T00:43:38.125Z,4.80
2018-07-23T00:44:38.088Z,4.70
2018-07-23T00:45:38.051Z,4.40
2018-07-23T00:46:38.012Z,4.70
2018-07-23T00:47:38.000Z,4.40
2018-07-23T00:48:37.931Z,4.70
2018-07-23T00:49:37.896Z,4.50
2018-07-23T00:50:37.862Z,4.90
2018-07-23T00:51:37.837Z,4.80
2018-07-23T00:52:37.809Z,4.70
2018-07-23T00:53:37.751Z,4.80
2018-07-23T00:54:37.708Z,4.70
2018-07-23T00:55:37.668Z,5.20
2018-07-23T00:56:37.631Z,5.10
2018-07-23T00:57:37.617Z,5.50
2018-07-23T00:58:47.631Z,5.30
2018-07-23T00:59:37.521Z,5.10
2018-07-23T01:00:37.490Z,4.90
2018-07-23T01:01:37.448Z,4.90
2018-07-23T01:02:37.414Z,5.20
2018-07-23T01:03:37.395Z,4.80
2018-07-23T01:04:37.326Z,5.00
2018-07-23T01:05:37.290Z,5.10
2018-07-23T01:06:37.258Z,5.50
2018-07-23T01:07:37.217Z,5.20
2018-07-23T01:08:37.205Z,5.00
2018-07-23T01:09:37.148Z,5.20
2018-07-23T01:10:37.109Z,5.10
2018-07-23T01:11:37.071Z,5.20
2018-07-23T01:12:37.028Z,5.30
2018-07-23T01:13:37.015Z,5.20
2018-07-23T01:14:36.959Z,5.10
2018-07-23T01:15:36.921Z,5.50
2018-07-23T01:16:36.874Z,5.20
2018-07-23T01:17:36.838Z,5.20
2018-07-23T01:18:36.797Z,5.20
2018-07-23T01:19:36.782Z,5.20
2018-07-23T01:20:36.734Z,5.40
2018-07-23T01:21:36.695Z,5.10
2018-07-23T01:22:36.652Z,5.20
2018-07-23T01:23:36.618Z,5.70
2018-07-23T01:24:36.591Z,5.30
2018-07-23T01:25:36.537Z,5.20
2018-07-23T01:26:36.495Z,5.30
2018-07-23T01:27:36.456Z,5.00
2018-07-23T01:28:36.429Z,5.40
2018-07-23T01:29:36.408Z,5.60
2018-07-23T01:30:36.344Z,5.10
2018-07-23T01:31:36.309Z,5.60
2018-07-23T01:32:36.273Z,5.80
2018-07-23T01:33:36.241Z,5.20
2018-07-23T01:34:36.225Z,5.70
2018-07-23T01:35:36.161Z,5.10
2018-07-23T01:36:36.116Z,5.50
2018-07-23T01:37:36.078Z,5.40
2018-07-23T01:38:36.040Z,5.30
2018-07-23T01:39:36.007Z,5.50
2018-07-23T01:40:35.994Z,5.70
2018-07-23T01:41:35.935Z,5.70
2018-07-23T01:42:35.898Z,5.50
2018-07-23T01:43:35.860Z,5.70
2018-07-23T01:44:35.822Z,5.90
2018-07-23T01:45:35.794Z,5.40
2018-07-23T01:46:35.740Z,5.40
2018-07-23T01:47:35.709Z,5.20
2018-07-23T01:48:35.658Z,5.50
2018-07-23T01:49:35.628Z,5.40
2018-07-23T01:50:35.608Z,5.40
2018-07-23T01:51:35.545Z,5.60
2018-07-23T01:52:35.519Z,5.50
2018-07-23T01:53:35.475Z,5.80
2018-07-23T01:54:35.442Z,5.60
2018-07-23T01:55:35.400Z,5.60
2018-07-23T01:56:35.384Z,5.60
2018-07-23T01:57:35.318Z,5.40
2018-07-23T01:58:35.283Z,5.60
2018-07-23T01:59:35.250Z,5.80
2018-07-23T02:00:35.214Z,5.50
2018-07-23T02:01:35.193Z,6.10
2018-07-23T02:02:35.132Z,6.10
2018-07-23T02:03:35.094Z,5.80
2018-07-23T02:04:35.060Z,5.30
2018-07-23T02:05:35.025Z,5.80
2018-07-23T02:06:35.006Z,5.80
2018-07-23T02:07:34.945Z,6.20
2018-07-23T02:08:34.899Z,5.80
2018-07-23T02:09:34.862Z,6.00
2018-07-23T02:10:34.821Z,6.10
2018-07-23T02:11:34.815Z,6.00
2018-07-23T02:12:34.758Z,6.20
2018-07-23T02:13:34.721Z,6.30
2018-07-23T02:14:45.190Z,6.20
2018-07-23T02:15:34.638Z,6.20
2018-07-23T02:16:34.604Z,6.10
2018-07-23T02:17:34.586Z,5.90
2018-07-23T02:18:34.523Z,5.80
2018-07-23T02:19:34.481Z,5.90
2018-07-23T02:20:34.442Z,5.90
2018-07-23T02:21:34.401Z,5.80
2018-07-23T02:22:34.396Z,5.80
2018-07-23T02:23:34.337Z,6.00
2018-07-23T02:24:34.303Z,6.00
2018-07-23T02:25:34.273Z,5.90
2018-07-23T02:26:34.217Z,5.80
2018-07-23T02:27:34.247Z,5.80
2018-07-23T02:28:34.140Z,6.30
2018-07-23T02:29:34.100Z,6.20
2018-07-23T02:30:34.071Z,5.80
2018-07-23T02:31:34.042Z,5.90
2018-07-23T02:32:33.992Z,6.00
2018-07-23T02:33:33.973Z,6.10
2018-07-23T02:34:33.918Z,5.90
2018-07-23T02:35:33.878Z,6.10
2018-07-23T02:36:33.845Z,6.10
2018-07-23T02:37:33.803Z,6.50
2018-07-23T02:38:33.787Z,6.10
2018-07-23T02:39:33.733Z,5.90
2018-07-23T02:40:33.681Z,6.10
2018-07-23T02:41:33.651Z,6.70
2018-07-23T02:42:33.614Z,6.50
2018-07-23T02:43:33.597Z,6.70
2018-07-23T02:44:33.541Z,6.70
2018-07-23T02:45:33.494Z,6.90
2018-07-23T02:46:33.456Z,6.60
2018-07-23T02:47:33.416Z,6.70
2018-07-23T02:48:33.418Z,6.70
2018-07-23T02:49:33.347Z,6.80
2018-07-23T02:50:33.302Z,6.20
2018-07-23T02:51:33.262Z,6.50
2018-07-23T02:52:33.223Z,6.20
2018-07-23T02:53:33.189Z,6.80
2018-07-23T02:54:33.178Z,6.80
2018-07-23T02:55:33.118Z,6.50
2018-07-23T02:56:33.084Z,6.90
2018-07-23T02:57:33.042Z,6.70
2018-07-23T02:58:33.000Z,7.20
2018-07-23T02:59:33.059Z,7.20
2018-07-23T03:00:32.919Z,6.70
2018-07-23T03:01:32.883Z,7.00
2018-07-23T03:02:32.852Z,7.40
2018-07-23T03:03:32.808Z,7.00
2018-07-23T03:04:32.793Z,6.80
2018-07-23T03:05:32.730Z,6.90
2018-07-23T03:06:32.697Z,6.70
2018-07-23T03:07:32.660Z,6.40
2018-07-23T03:08:32.620Z,7.20
2018-07-23T03:09:42.260Z,6.90
2018-07-23T03:10:32.545Z,6.90
2018-07-23T03:11:32.506Z,6.90
2018-07-23T03:12:32.463Z,7.10
2018-07-23T03:13:32.419Z,7.10
2018-07-23T03:14:32.386Z,7.00
2018-07-23T03:15:32.369Z,6.80
2018-07-23T03:16:32.317Z,7.10
2018-07-23T03:17:32.277Z,6.80
2018-07-23T03:18:32.234Z,7.10
2018-07-23T03:19:32.192Z,6.90
2018-07-23T03:20:32.196Z,6.50
2018-07-23T03:21:32.123Z,6.60
2018-07-23T03:22:32.088Z,6.60
2018-07-23T03:23:32.053Z,6.80
2018-07-23T03:24:32.002Z,7.00
2018-07-23T03:25:31.963Z,7.40
2018-07-23T03:26:31.959Z,7.20
2018-07-23T03:27:42.288Z,7.20
2018-07-23T03:28:31.855Z,7.20
2018-07-23T03:29:31.817Z,7.50
2018-07-23T03:30:31.770Z,7.10
2018-07-23T03:31:31.755Z,7.10
2018-07-23T03:32:31.706Z,7.30
2018-07-23T03:33:31.662Z,7.90
2018-07-23T03:34:31.618Z,7.30
2018-07-23T03:35:31.584Z,7.40
2018-07-23T03:36:31.565Z,7.60
2018-07-23T03:37:31.503Z,7.70
2018-07-23T03:38:31.473Z,7.20
2018-07-23T03:39:31.433Z,7.70
2018-07-23T03:40:31.395Z,7.60
2018-07-23T03:41:31.384Z,7.70
2018-07-23T03:42:31.310Z,8.10
2018-07-23T03:43:31.274Z,7.70
2018-07-23T03:44:31.235Z,8.20
2018-07-23T03:45:31.199Z,7.50
2018-07-23T03:46:40.846Z,7.40
2018-07-23T03:47:31.122Z,8.10
2018-07-23T03:48:31.091Z,7.40
2018-07-23T03:49:31.053Z,7.30
2018-07-23T03:50:31.014Z,7.70
2018-07-23T03:51:30.974Z,7.80
2018-07-23T03:52:30.953Z,7.90
2018-07-23T03:53:30.895Z,7.50
2018-07-23T03:54:30.854Z,7.80
2018-07-23T03:55:30.813Z,7.90
2018-07-23T03:56:30.787Z,7.60
2018-07-23T03:57:30.776Z,8.40
2018-07-23T03:58:30.706Z,8.00
2018-07-23T03:59:30.668Z,8.20
2018-07-23T04:00:30.620Z,7.90
2018-07-23T04:01:30.583Z,8.10
2018-07-23T04:02:30.554Z,8.40
2018-07-23T04:03:30.562Z,8.00
2018-07-23T04:04:30.471Z,8.40
2018-07-23T04:05:30.430Z,8.40
2018-07-23T04:06:30.396Z,8.20
2018-07-23T04:07:30.354Z,8.10
2018-07-23T04:08:30.343Z,8.70
2018-07-23T04:09:30.285Z,8.60
2018-07-23T04:10:30.251Z,7.70
2018-07-23T04:11:30.211Z,8.20
2018-07-23T04:12:30.161Z,8.00
2018-07-23T04:13:30.151Z,8.30
2018-07-23T04:14:30.086Z,8.70
2018-07-23T04:15:30.051Z,8.60
2018-07-23T04:16:30.019Z,8.00
2018-07-23T04:17:30.005Z,8.20
2018-07-23T04:18:29.957Z,8.10
2018-07-23T04:19:29.896Z,8.20
2018-07-23T04:20:29.870Z,8.30
2018-07-23T04:21:29.828Z,8.50
2018-07-23T04:22:29.791Z,8.10
2018-07-23T04:23:29.752Z,8.70
2018-07-23T04:24:39.384Z,8.80
2018-07-23T04:25:29.666Z,8.90
2018-07-23T04:26:29.637Z,8.70
2018-07-23T04:27:29.599Z,8.30
2018-07-23T04:28:29.565Z,8.10
2018-07-23T04:29:29.544Z,8.10
2018-07-23T04:30:29.479Z,8.00
2018-07-23T04:31:29.439Z,7.90
2018-07-23T04:32:29.411Z,7.90
2018-07-23T04:33:29.373Z,8.00
2018-07-23T04:34:29.353Z,8.30
2018-07-23T04:35:29.287Z,8.50
2018-07-23T04:36:29.251Z,8.60
2018-07-23T04:37:29.211Z,7.90
2018-07-23T04:38:29.177Z,8.30
2018-07-23T04:39:29.145Z,8.90
2018-07-23T04:40:29.123Z,8.40
2018-07-23T04:41:29.068Z,8.80
2018-07-23T04:42:39.411Z,8.60
2018-07-23T04:43:28.984Z,8.10
2018-07-23T04:44:28.952Z,8.20
2018-07-23T04:45:28.940Z,8.70
2018-07-23T04:46:28.870Z,8.30
2018-07-23T04:47:28.833Z,8.60
2018-07-23T04:48:28.802Z,8.30
2018-07-23T04:49:28.769Z,8.30
2018-07-23T04:50:28.754Z,8.40
2018-07-23T04:51:28.693Z,8.80
2018-07-23T04:52:28.646Z,8.60
2018-07-23T04:53:28.611Z,8.60
2018-07-23T04:54:28.570Z,8.50
2018-07-23T04:55:28.563Z,8.00
2018-07-23T04:56:28.507Z,7.70
2018-07-23T04:57:28.469Z,7.30
2018-07-23T04:58:28.432Z,7.20
2018-07-23T04:59:28.393Z,6.90
2018-07-23T05:00:37.972Z,7.00
2018-07-23T05:01:28.328Z,6.90
2018-07-23T05:02:28.276Z,6.90
2018-07-23T05:03:28.245Z,6.90
2018-07-23T05:04:28.207Z,6.30
2018-07-23T05:05:28.181Z,6.50
2018-07-23T05:06:28.168Z,6.60
2018-07-23T05:07:28.107Z,6.60
2018-07-23T05:08:28.072Z,6.80
2018-07-23T05:09:28.036Z,6.40
2018-07-23T05:10:27.996Z,6.20
2018-07-23T05:11:27.996Z,5.80
2018-07-23T05:12:27.927Z,5.80
2018-07-23T05:13:27.894Z,6.30
2018-07-23T05:14:27.868Z,6.60
2018-07-23T05:15:27.826Z,6.10
2018-07-23T05:16:27.787Z,6.70
2018-07-23T05:17:27.783Z,6.30
2018-07-23T05:18:27.734Z,6.60
2018-07-23T05:19:38.990Z,6.70
2018-07-23T05:20:27.654Z,7.50
2018-07-23T05:21:27.614Z,6.80
2018-07-23T05:22:27.613Z,6.50
2018-07-23T05:23:27.552Z,6.80
2018-07-23T05:24:27.570Z,6.90
2018-07-23T05:25:27.489Z,6.50
2018-07-23T05:26:27.457Z,7.30
2018-07-23T05:27:27.450Z,6.60
2018-07-23T05:28:27.386Z,7.00
2018-07-23T05:29:27.352Z,7.40
2018-07-23T05:30:27.335Z,7.70
2018-07-23T05:31:27.294Z,7.60
2018-07-23T05:32:27.279Z,7.20
2018-07-23T05:33:27.214Z,7.50
2018-07-23T05:34:27.188Z,6.50
2018-07-23T05:35:27.152Z,6.40
2018-07-23T05:36:27.124Z,6.80
2018-07-23T05:37:27.089Z,6.80
2018-07-23T05:38:37.075Z,6.70
2018-07-23T05:39:27.020Z,6.40
2018-07-23T05:40:26.991Z,6.50
2018-07-23T05:41:26.954Z,6.80
2018-07-23T05:42:26.933Z,7.80
2018-07-23T05:43:26.916Z,8.30
2018-07-23T05:44:26.852Z,8.00
2018-07-23T05:45:26.818Z,7.60
2018-07-23T05:46:26.799Z,7.00
2018-07-23T05:47:26.762Z,7.10
2018-07-23T05:48:26.768Z,7.40
2018-07-23T05:49:26.695Z,7.70
2018-07-23T05:50:26.654Z,7.80
2018-07-23T05:51:26.625Z,8.10
2018-07-23T05:52:26.599Z,7.70
2018-07-23T05:53:26.562Z,8.10
2018-07-23T05:54:26.558Z,7.80
2018-07-23T05:55:26.508Z,8.00
2018-07-23T05:56:26.474Z,8.10
2018-07-23T05:57:26.447Z,8.80
2018-07-23T05:58:35.585Z,9.10
2018-07-23T05:59:26.399Z,8.30
2018-07-23T06:00:26.337Z,8.60
2018-07-23T06:01:26.311Z,8.00
2018-07-23T06:02:26.272Z,8.40
2018-07-23T06:03:26.245Z,8.50
2018-07-23T06:04:26.242Z,8.60
2018-07-23T06:05:26.183Z,8.70
2018-07-23T06:06:26.175Z,9.00
2018-07-23T06:07:26.119Z,9.30
2018-07-23T06:08:26.079Z,9.70
2018-07-23T06:09:26.049Z,10.00
2018-07-23T06:10:26.038Z,8.90
2018-07-23T06:11:25.984Z,9.40
2018-07-23T06:12:25.958Z,9.40
2018-07-23T06:13:25.979Z,9.10
2018-07-23T06:14:25.890Z,8.90
2018-07-23T06:15:25.873Z,9.70
2018-07-23T06:16:25.826Z,9.70
2018-07-23T06:17:25.799Z,8.80
2018-07-23T06:18:36.110Z,8.70
2018-07-23T06:19:25.721Z,9.70
2018-07-23T06:20:25.709Z,9.70
2018-07-23T06:21:25.651Z,9.90
2018-07-23T06:22:25.628Z,9.50
2018-07-23T06:23:25.594Z,8.90
2018-07-23T06:24:25.562Z,9.10
2018-07-23T06:25:25.563Z,8.90
2018-07-23T06:26:25.490Z,9.10
2018-07-23T06:27:25.458Z,8.70
2018-07-23T06:28:25.428Z,8.30
2018-07-23T06:29:25.398Z,8.50
2018-07-23T06:30:25.396Z,9.00
2018-07-23T06:31:25.347Z,8.60
2018-07-23T06:32:25.296Z,8.90
2018-07-23T06:33:25.259Z,8.60
2018-07-23T06:34:25.237Z,8.60
2018-07-23T06:35:25.207Z,8.10
2018-07-23T06:36:25.194Z,8.10
2018-07-23T06:37:25.137Z,7.80
2018-07-23T06:38:25.098Z,8.50
2018-07-23T06:39:25.071Z,8.40
2018-07-23T06:40:25.037Z,8.50
2018-07-23T06:41:25.032Z,8.90
2018-07-23T06:42:24.981Z,8.60
2018-07-23T06:43:25.013Z,8.40
2018-07-23T06:44:24.912Z,8.30
2018-07-23T06:45:24.882Z,7.70
2018-07-23T06:46:24.882Z,8.50
2018-07-23T06:47:24.824Z,9.50
2018-07-23T06:48:24.795Z,10.40
2018-07-23T06:49:24.762Z,11.20
2018-07-23T06:50:24.726Z,9.40
2018-07-23T06:51:24.695Z,11.20
2018-07-23T06:52:24.685Z,10.00
2018-07-23T06:53:24.631Z,10.10
2018-07-23T06:54:24.608Z,11.30
2018-07-23T06:55:24.590Z,10.90
2018-07-23T06:56:34.664Z,11.10
2018-07-23T06:57:24.571Z,10.70
2018-07-23T06:58:24.490Z,10.10
2018-07-23T06:59:24.457Z,10.50
2018-07-23T07:00:24.423Z,10.90
2018-07-23T07:01:24.390Z,11.80
2018-07-23T07:02:24.361Z,12.00
2018-07-23T07:03:24.362Z,12.50
2018-07-23T07:04:24.309Z,12.00
2018-07-23T07:05:24.279Z,12.50
2018-07-23T07:06:24.304Z,11.90
2018-07-23T07:07:24.220Z,11.70
2018-07-23T07:08:24.227Z,11.50
2018-07-23T07:09:24.157Z,12.00
2018-07-23T07:10:24.120Z,11.00
2018-07-23T07:11:24.094Z,12.40
2018-07-23T07:12:24.069Z,12.20
2018-07-23T07:13:24.127Z,12.70
2018-07-23T07:14:24.005Z,13.00
2018-07-23T07:15:23.975Z,12.60
2018-07-23T07:16:23.951Z,12.30
2018-07-23T07:17:23.926Z,12.40
2018-07-23T07:18:23.895Z,13.40
2018-07-23T07:19:23.888Z,11.30
2018-07-23T07:20:23.828Z,11.80
2018-07-23T07:21:23.800Z,10.70
2018-07-23T07:22:23.764Z,10.90
2018-07-23T07:23:23.736Z,11.90
2018-07-23T07:24:23.756Z,12.70
2018-07-23T07:25:23.707Z,11.70
2018-07-23T07:26:23.656Z,12.50
2018-07-23T07:27:23.628Z,11.90
2018-07-23T07:28:23.592Z,12.40
2018-07-23T07:29:23.592Z,12.10
2018-07-23T07:30:23.543Z,11.80
2018-07-23T07:31:23.511Z,11.70
2018-07-23T07:32:23.477Z,11.60
2018-07-23T07:33:23.443Z,13.10
2018-07-23T07:34:23.415Z,12.90
2018-07-23T07:35:23.410Z,12.50
2018-07-23T07:36:33.732Z,12.50
2018-07-23T07:37:23.336Z,12.10
2018-07-23T07:38:23.348Z,11.70
2018-07-23T07:39:23.267Z,12.70
2018-07-23T07:40:23.259Z,12.80
2018-07-23T07:41:23.204Z,12.90
2018-07-23T07:42:23.185Z,11.90
2018-07-23T07:43:23.154Z,12.50
2018-07-23T07:44:23.116Z,12.50
2018-07-23T07:45:23.105Z,11.80
2018-07-23T07:46:23.072Z,11.80
2018-07-23T07:47:23.028Z,11.40
2018-07-23T07:48:23.000Z,11.80
2018-07-23T07:49:22.968Z,12.00
2018-07-23T07:50:22.957Z,11.70
2018-07-23T07:51:22.898Z,11.20
2018-07-23T07:52:22.867Z,12.10
2018-07-23T07:53:22.849Z,13.30
2018-07-23T07:54:22.814Z,13.00
2018-07-23T07:55:22.788Z,12.30
2018-07-23T07:56:32.775Z,12.00
2018-07-23T07:57:22.724Z,12.40
2018-07-23T07:58:22.691Z,12.30
2018-07-23T07:59:22.658Z,12.60
2018-07-23T08:00:22.619Z,12.00
2018-07-23T08:01:22.619Z,12.60
2018-07-23T08:02:22.559Z,12.00
2018-07-23T08:03:22.531Z,11.70
2018-07-23T08:04:22.502Z,11.60
2018-07-23T08:05:22.474Z,13.10
2018-07-23T08:06:22.441Z,11.30
2018-07-23T08:07:22.431Z,11.60
2018-07-23T08:08:22.370Z,11.80
2018-07-23T08:09:22.339Z,11.60
2018-07-23T08:10:22.315Z,13.10
2018-07-23T08:11:22.277Z,11.90
2018-07-23T08:12:22.282Z,11.10
2018-07-23T08:13:22.223Z,10.50
2018-07-23T08:14:22.193Z,10.10
2018-07-23T08:15:22.155Z,10.70
2018-07-23T08:16:22.130Z,12.90
2018-07-23T08:17:22.122Z,12.20
2018-07-23T08:18:22.067Z,12.90
2018-07-23T08:19:22.033Z,11.90
2018-07-23T08:20:21.998Z,13.20
2018-07-23T08:21:21.966Z,12.10
2018-07-23T08:22:21.938Z,12.30
2018-07-23T08:23:21.923Z,12.50
2018-07-23T08:24:21.878Z,12.90
2018-07-23T08:25:21.847Z,14.40
2018-07-23T08:26:21.816Z,14.10
2018-07-23T08:27:21.786Z,12.20
2018-07-23T08:28:21.770Z,12.80
2018-07-23T08:29:21.716Z,12.70
2018-07-23T08:30:21.695Z,12.70
2018-07-23T08:31:21.665Z,12.90
2018-07-23T08:32:21.675Z,12.50
2018-07-23T08:33:21.612Z,12.90
2018-07-23T08:34:21.560Z,13.70
2018-07-23T08:35:21.526Z,12.70
2018-07-23T08:36:31.808Z,12.60
2018-07-23T08:37:21.476Z,13.30
2018-07-23T08:38:21.460Z,14.30
2018-07-23T08:39:21.401Z,14.30
2018-07-23T08:40:21.373Z,13.40
2018-07-23T08:41:21.339Z,13.90
2018-07-23T08:42:21.317Z,14.10
2018-07-23T08:43:21.285Z,14.60
2018-07-23T08:44:21.274Z,14.60
2018-07-23T08:45:21.215Z,13.90
2018-07-23T08:46:21.187Z,14.20
2018-07-23T08:47:21.166Z,13.70
2018-07-23T08:48:21.125Z,13.60
2018-07-23T08:49:21.116Z,13.10
2018-07-23T08:50:21.056Z,14.10
2018-07-23T08:51:21.075Z,12.60
2018-07-23T08:52:20.998Z,13.10
2018-07-23T08:53:20.961Z,12.80
2018-07-23T08:54:20.961Z,13.90
2018-07-23T08:55:20.900Z,14.90
2018-07-23T08:56:20.873Z,13.40
2018-07-23T08:57:20.871Z,14.70
2018-07-23T08:58:20.805Z,14.80
2018-07-23T08:59:20.768Z,12.70
2018-07-23T09:00:20.781Z,13.70
2018-07-23T09:01:20.714Z,13.70
2018-07-23T09:02:20.735Z,13.20
2018-07-23T09:03:20.640Z,12.00
2018-07-23T09:04:20.614Z,12.50
2018-07-23T09:05:20.603Z,12.80
2018-07-23T09:06:20.561Z,13.00
2018-07-23T09:07:20.528Z,13.00
2018-07-23T09:08:20.536Z,13.10
2018-07-23T09:09:20.465Z,13.50
2018-07-23T09:10:20.455Z,13.80
2018-07-23T09:11:20.401Z,14.40
2018-07-23T09:12:20.372Z,14.30
2018-07-23T09:13:20.340Z,13.40
2018-07-23T09:14:20.312Z,11.90
2018-07-23T09:15:29.875Z,13.00
2018-07-23T09:16:20.256Z,12.40
2018-07-23T09:17:20.244Z,12.60
2018-07-23T09:18:20.193Z,12.00
2018-07-23T09:19:20.165Z,12.30
2018-07-23T09:20:20.138Z,12.50
2018-07-23T09:21:20.121Z,12.30
2018-07-23T09:22:20.067Z,11.30
2018-07-23T09:23:20.042Z,12.00
2018-07-23T09:24:20.016Z,11.40
2018-07-23T09:25:19.982Z,12.20
2018-07-23T09:26:19.977Z,11.50
2018-07-23T09:27:19.922Z,12.30
2018-07-23T09:28:19.896Z,10.70
2018-07-23T09:29:19.862Z,11.30
2018-07-23T09:30:19.843Z,11.40
2018-07-23T09:31:19.844Z,11.50
2018-07-23T09:32:19.775Z,11.70
2018-07-23T09:33:19.744Z,10.30
2018-07-23T09:34:19.722Z,11.40
2018-07-23T09:35:29.922Z,11.00
2018-07-23T09:36:19.675Z,11.20
2018-07-23T09:37:19.677Z,10.30
2018-07-23T09:38:19.616Z,10.40
2018-07-23T09:39:19.592Z,10.30
2018-07-23T09:40:19.562Z,9.90
2018-07-23T09:41:19.540Z,10.50
2018-07-23T09:42:19.541Z,10.60
2018-07-23T09:43:19.490Z,10.90
2018-07-23T09:44:19.465Z,10.90
2018-07-23T09:45:19.436Z,10.10
2018-07-23T09:46:19.417Z,10.50
2018-07-23T09:47:19.417Z,10.50
2018-07-23T09:48:19.370Z,10.90
2018-07-23T09:49:19.344Z,12.80
2018-07-23T09:50:19.314Z,11.70
2018-07-23T09:51:19.291Z,12.20
2018-07-23T09:52:19.300Z,10.50
2018-07-23T09:53:19.254Z,11.70
2018-07-23T09:54:19.236Z,11.10
2018-07-23T09:55:30.443Z,12.00
2018-07-23T09:56:19.171Z,11.50
2018-07-23T09:57:19.146Z,11.80
2018-07-23T09:58:19.146Z,12.30
2018-07-23T09:59:19.102Z,12.90
2018-07-23T10:00:19.069Z,12.00
2018-07-23T10:01:19.045Z,11.30
2018-07-23T10:02:19.021Z,10.20
2018-07-23T10:03:19.082Z,9.80
2018-07-23T10:04:18.982Z,9.90
2018-07-23T10:05:18.955Z,9.80
2018-07-23T10:06:18.939Z,10.10
2018-07-23T10:07:18.906Z,10.00
2018-07-23T10:08:18.876Z,9.80
2018-07-23T10:09:18.870Z,9.90
2018-07-23T10:10:18.829Z,8.70
2018-07-23T10:11:18.799Z,10.00
2018-07-23T10:12:18.785Z,10.40
2018-07-23T10:13:18.751Z,8.70
2018-07-23T10:14:18.745Z,10.00
2018-07-23T10:15:18.694Z,9.90
2018-07-23T10:16:18.680Z,9.80
2018-07-23T10:17:18.652Z,8.90
2018-07-23T10:18:18.626Z,9.20
2018-07-23T10:19:18.636Z,9.40
2018-07-23T10:20:18.565Z,9.90
2018-07-23T10:21:18.544Z,10.40
2018-07-23T10:22:18.592Z,9.90
2018-07-23T10:23:18.492Z,10.40
2018-07-23T10:24:18.473Z,9.60
2018-07-23T10:25:18.474Z,9.90
2018-07-23T10:26:18.429Z,9.90
2018-07-23T10:27:18.402Z,9.30
2018-07-23T10:28:18.373Z,8.50
2018-07-23T10:29:18.343Z,9.30
2018-07-23T10:30:18.354Z,9.70
2018-07-23T10:31:18.298Z,10.70
2018-07-23T10:32:18.273Z,11.30
2018-07-23T10:33:18.244Z,10.30
2018-07-23T10:34:18.234Z,9.60
2018-07-23T10:35:18.217Z,10.40
2018-07-23T10:36:18.170Z,10.70
2018-07-23T10:37:18.151Z,10.00
2018-07-23T10:38:18.123Z,8.80
2018-07-23T10:39:18.098Z,8.90
2018-07-23T10:40:18.067Z,9.00
2018-07-23T10:41:18.075Z,8.50
2018-07-23T10:42:18.010Z,9.20
2018-07-23T10:43:18.014Z,8.80
2018-07-23T10:44:17.966Z,9.50
2018-07-23T10:45:17.939Z,9.20
2018-07-23T10:46:17.924Z,9.70
2018-07-23T10:47:17.883Z,10.60
2018-07-23T10:48:17.856Z,10.00
2018-07-23T10:49:17.832Z,9.70
2018-07-23T10:50:17.798Z,9.90
2018-07-23T10:51:17.794Z,8.70
2018-07-23T10:52:17.744Z,9.10
2018-07-23T10:53:17.710Z,9.20
2018-07-23T10:54:17.679Z,9.00
2018-07-23T10:55:17.651Z,8.90
2018-07-23T10:56:17.657Z,11.20
2018-07-23T10:57:17.647Z,10.90
2018-07-23T10:58:17.576Z,9.60
2018-07-23T10:59:17.553Z,9.60
2018-07-23T11:00:17.508Z,9.50
2018-07-23T11:01:17.487Z,9.40
2018-07-23T11:02:17.480Z,8.40
2018-07-23T11:03:17.426Z,9.20
2018-07-23T11:04:17.442Z,8.60
2018-07-23T11:05:17.361Z,8.70
2018-07-23T11:06:17.339Z,9.10
2018-07-23T11:07:17.346Z,9.50
2018-07-23T11:08:17.283Z,8.70
2018-07-23T11:09:17.257Z,8.90
2018-07-23T11:10:17.220Z,8.90
2018-07-23T11:11:17.189Z,8.70
2018-07-23T11:12:17.189Z,8.80
2018-07-23T11:13:17.144Z,8.50
2018-07-23T11:14:17.119Z,8.00
2018-07-23T11:15:17.078Z,8.40
2018-07-23T11:16:17.048Z,7.20
2018-07-23T11:17:17.009Z,6.70
2018-07-23T11:18:17.012Z,5.90
2018-07-23T11:19:16.990Z,6.00
2018-07-23T11:20:16.921Z,6.40
2018-07-23T11:21:16.893Z,6.70
2018-07-23T11:22:16.860Z,6.80
2018-07-23T11:23:16.860Z,7.90
2018-07-23T11:24:16.813Z,8.90
2018-07-23T11:25:38.703Z,7.70
2018-07-23T11:26:16.774Z,7.50
2018-07-23T11:27:16.729Z,6.90
2018-07-23T11:28:16.719Z,7.10
2018-07-23T11:29:16.660Z,7.70
2018-07-23T11:30:16.637Z,8.20
2018-07-23T11:31:16.604Z,6.50
2018-07-23T11:32:16.584Z,6.40
2018-07-23T11:33:16.556Z,6.90
2018-07-23T11:34:16.539Z,6.50
2018-07-23T11:35:27.018Z,6.70
2018-07-23T11:36:16.481Z,6.40
2018-07-23T11:37:16.448Z,5.10
2018-07-23T11:38:16.418Z,5.50
2018-07-23T11:39:16.409Z,4.80
2018-07-23T11:40:16.366Z,3.70
2018-07-23T11:41:16.335Z,3.40
2018-07-23T11:42:16.318Z,3.60
2018-07-23T11:43:16.290Z,3.20
2018-07-23T11:44:16.296Z,4.40
2018-07-23T11:45:16.270Z,6.60
2018-07-23T11:46:24.420Z,6.30
2018-07-23T11:47:16.195Z,6.60
2018-07-23T11:48:16.198Z,5.90
2018-07-23T11:49:16.166Z,5.60
2018-07-23T11:50:16.110Z,5.00
2018-07-23T11:51:16.084Z,4.20
2018-07-23T11:52:16.061Z,4.00
2018-07-23T11:53:16.049Z,3.60
2018-07-23T11:54:26.584Z,3.60
2018-07-23T11:55:15.988Z,4.00
2018-07-23T11:56:15.956Z,4.70
2018-07-23T11:57:15.930Z,4.90
2018-07-23T11:58:15.907Z,5.30
2018-07-23T11:59:15.878Z,4.80
2018-07-23T12:00:15.877Z,4.40
2018-07-23T12:01:15.827Z,4.20
2018-07-23T12:02:15.797Z,4.40
2018-07-23T12:03:15.768Z,4.00
2018-07-23T12:04:15.813Z,3.40
2018-07-23T12:05:15.744Z,3.60
2018-07-23T12:06:15.691Z,3.70
2018-07-23T12:07:15.659Z,3.40
2018-07-23T12:08:15.633Z,3.70
2018-07-23T12:09:15.595Z,3.80
2018-07-23T12:10:15.595Z,4.40
2018-07-23T12:11:15.535Z,4.90
2018-07-23T12:12:15.517Z,4.10
2018-07-23T12:13:15.486Z,4.60
2018-07-23T12:14:25.609Z,5.00
2018-07-23T12:15:15.415Z,5.10
2018-07-23T12:16:15.429Z,4.60
2018-07-23T12:17:15.396Z,4.40
2018-07-23T12:18:15.333Z,4.40
2018-07-23T12:19:15.302Z,4.20
2018-07-23T12:20:15.275Z,4.70
2018-07-23T12:21:15.276Z,4.00
2018-07-23T12:22:15.225Z,3.90
2018-07-23T12:23:15.199Z,3.70
2018-07-23T12:24:15.164Z,3.50
2018-07-23T12:25:15.136Z,3.90
2018-07-23T12:26:15.107Z,3.70
2018-07-23T12:27:15.096Z,3.50
2018-07-23T12:28:15.049Z,3.80
2018-07-23T12:29:15.029Z,3.80
2018-07-23T12:30:15.000Z,3.80
2018-07-23T12:31:14.978Z,3.70
2018-07-23T12:32:14.965Z,3.60
2018-07-23T12:33:14.916Z,4.00
2018-07-23T12:34:26.153Z,3.60
2018-07-23T12:35:14.870Z,3.70
2018-07-23T12:36:14.840Z,3.60
2018-07-23T12:37:14.837Z,3.70
2018-07-23T12:38:14.794Z,3.70
2018-07-23T12:39:14.757Z,4.00
2018-07-23T12:40:14.743Z,4.00
2018-07-23T12:41:14.717Z,4.30
2018-07-23T12:42:14.717Z,3.90
2018-07-23T12:43:14.664Z,4.30
2018-07-23T12:44:14.631Z,4.10
2018-07-23T12:45:14.612Z,3.80
2018-07-23T12:46:14.606Z,4.20
2018-07-23T12:47:14.594Z,4.30
2018-07-23T12:48:14.536Z,4.20
2018-07-23T12:49:14.513Z,4.20
2018-07-23T12:50:14.480Z,4.80
2018-07-23T12:51:14.462Z,4.40
2018-07-23T12:52:14.447Z,4.60
2018-07-23T12:53:14.438Z,4.70
2018-07-23T12:54:14.390Z,4.50
2018-07-23T12:55:14.362Z,4.90
2018-07-23T12:56:14.331Z,4.60
2018-07-23T12:57:14.301Z,5.00
2018-07-23T12:58:14.306Z,4.60
2018-07-23T12:59:14.248Z,4.30
2018-07-23T13:00:14.227Z,4.30
2018-07-23T13:01:14.203Z,4.70
2018-07-23T13:02:14.175Z,4.60
2018-07-23T13:03:14.150Z,4.60
2018-07-23T13:04:14.145Z,4.60
2018-07-23T13:05:14.094Z,4.70
2018-07-23T13:06:14.071Z,4.30
2018-07-23T13:07:14.037Z,4.30
2018-07-23T13:08:14.053Z,4.70
2018-07-23T13:09:13.997Z,4.60
2018-07-23T13:10:13.950Z,4.40
2018-07-23T13:11:13.925Z,4.70